Time;durP1;ratioP1;P1;durP2;ratioP2;P2;SDS_P1;SDS_P2;PMS_P1;PMS_P2;Temp;Humidity;BMP_temperature;BMP_pressure;BME280_temperature;BME280_humidity;BME280_pressure;Samples;Min_cycle;Max_cycle;Signal;HPM_P1;HPM_P2
2023/10/26 00:00:48;;;;;;;476.80;188.93;;;;;;;;;;5049127;28;20217;-68
2023/10/26 00:03:14;;;;;;;469.73;183.17;;;;;;;;;;5051747;28;20178;-68
2023/10/26 00:05:40;;;;;;;465.53;186.13;;;;;;;;;;5054902;28;20213;-68
2023/10/26 00:08:06;;;;;;;478.43;181.00;;;;;;;;;;5049213;28;20727;-67
2023/10/26 00:10:32;;;;;;;469.23;185.60;;;;;;;;;;5045189;28;20211;-68
2023/10/26 00:12:58;;;;;;;467.77;174.87;;;;;;;;;;5051608;28;20210;-68
2023/10/26 00:15:24;;;;;;;505.43;206.13;;;;;;;;;;5046720;28;20306;-68
2023/10/26 00:17:49;;;;;;;445.60;170.07;;;;;;;;;;5053354;28;20214;-68
2023/10/26 00:20:16;;;;;;;510.77;200.50;;;;;;;;;;5052405;28;21225;-68
2023/10/26 00:22:42;;;;;;;448.47;172.33;;;;;;;;;;5050960;28;20226;-67
2023/10/26 00:25:08;;;;;;;497.27;190.43;;;;;;;;;;5050765;28;20228;-68
2023/10/26 00:27:40;;;;;;;475.80;185.10;;;;;;;;;;5046234;28;20357;-68
2023/10/26 00:30:06;;;;;;;491.10;190.03;;;;;;;;;;5051174;28;20284;-68
2023/10/26 00:32:32;;;;;;;426.97;162.20;;;;;;;;;;5054007;28;20178;-68
2023/10/26 00:34:58;;;;;;;460.30;171.00;;;;;;;;;;5053802;28;20834;-67
2023/10/26 00:37:24;;;;;;;519.40;201.60;;;;;;;;;;5047557;28;20704;-68
2023/10/26 00:39:50;;;;;;;461.03;171.17;;;;;;;;;;5068319;28;20266;-68
2023/10/26 00:42:16;;;;;;;487.50;189.17;;;;;;;;;;5055602;28;20278;-68
2023/10/26 00:44:46;;;;;;;472.80;184.13;;;;;;;;;;5054363;28;20175;-68
2023/10/26 00:47:12;;;;;;;468.67;182.63;;;;;;;;;;5051174;28;20326;-68
2023/10/26 00:49:40;;;;;;;502.37;192.43;;;;;;;;;;5061912;28;20367;-68
2023/10/26 00:52:07;;;;;;;443.67;168.60;;;;;;;;;;5046039;28;20230;-68
2023/10/26 00:54:33;;;;;;;467.77;174.00;;;;;;;;;;5045092;28;20216;-68
2023/10/26 00:56:59;;;;;;;474.93;176.97;;;;;;;;;;5055810;28;20224;-68
2023/10/26 00:59:30;;;;;;;498.17;190.50;;;;;;;;;;5056148;28;20305;-67
2023/10/26 01:01:56;;;;;;;451.77;168.73;;;;;;;;;;5055274;28;21007;-68
2023/10/26 01:04:22;;;;;;;442.17;166.90;;;;;;;;;;5055137;28;20724;-68
2023/10/26 01:06:48;;;;;;;458.67;178.63;;;;;;;;;;5052427;28;20230;-68
2023/10/26 01:09:15;;;;;;;468.47;182.87;;;;;;;;;;5049446;28;20212;-68
2023/10/26 01:11:41;;;;;;;452.03;173.70;;;;;;;;;;5059989;28;20183;-68
2023/10/26 01:14:08;;;;;;;449.70;170.20;;;;;;;;;;5051447;28;20215;-68
2023/10/26 01:16:35;;;;;;;472.33;175.13;;;;;;;;;;5052176;28;20755;-68
2023/10/26 01:19:05;;;;;;;465.07;175.37;;;;;;;;;;5050014;28;20227;-68
2023/10/26 01:21:31;;;;;;;415.60;158.43;;;;;;;;;;5045638;28;20295;-68
2023/10/26 01:23:57;;;;;;;462.20;182.07;;;;;;;;;;5050226;28;20202;-68
2023/10/26 01:26:24;;;;;;;471.20;183.63;;;;;;;;;;5054140;28;20214;-68
2023/10/26 01:28:50;;;;;;;442.67;166.80;;;;;;;;;;5054126;28;20215;-67
2023/10/26 01:31:19;;;;;;;499.07;194.27;;;;;;;;;;5050827;28;20257;-68
2023/10/26 01:33:45;;;;;;;465.13;180.93;;;;;;;;;;5050741;28;20684;-68
2023/10/26 01:36:11;;;;;;;456.50;176.70;;;;;;;;;;5045740;28;20218;-67
2023/10/26 01:38:37;;;;;;;434.20;165.90;;;;;;;;;;5049886;28;20182;-68
2023/10/26 01:41:04;;;;;;;438.67;165.50;;;;;;;;;;5048683;28;20915;-67
2023/10/26 01:43:30;;;;;;;492.40;194.43;;;;;;;;;;5053088;28;20213;-68
2023/10/26 01:45:56;;;;;;;437.03;162.57;;;;;;;;;;5055643;28;20305;-68
2023/10/26 01:48:26;;;;;;;450.20;174.07;;;;;;;;;;5069659;28;20302;-68
2023/10/26 01:50:52;;;;;;;472.87;181.77;;;;;;;;;;5051108;28;20661;-68
2023/10/26 01:53:17;;;;;;;505.67;199.30;;;;;;;;;;5053307;28;20211;-68
2023/10/26 01:55:43;;;;;;;443.33;169.00;;;;;;;;;;5048276;28;20220;-68
2023/10/26 01:58:09;;;;;;;471.23;182.60;;;;;;;;;;5052153;28;20218;-68
2023/10/26 02:00:35;;;;;;;472.43;181.00;;;;;;;;;;5067105;28;20219;-68
2023/10/26 02:03:01;;;;;;;472.97;185.00;;;;;;;;;;5051611;28;20183;-68
2023/10/26 02:05:27;;;;;;;473.33;185.70;;;;;;;;;;5047916;28;20215;-68
2023/10/26 02:07:53;;;;;;;462.13;175.93;;;;;;;;;;5057334;28;20899;-68
2023/10/26 02:10:19;;;;;;;472.47;183.93;;;;;;;;;;5070693;28;20211;-68
2023/10/26 02:12:45;;;;;;;507.30;199.37;;;;;;;;;;5047787;28;20772;-68
2023/10/26 02:15:11;;;;;;;518.73;209.97;;;;;;;;;;5050023;28;20218;-69
2023/10/26 02:17:37;;;;;;;431.43;162.97;;;;;;;;;;5054420;28;20215;-68
2023/10/26 02:20:04;;;;;;;428.37;164.87;;;;;;;;;;5053100;28;20449;-67
2023/10/26 02:22:29;;;;;;;467.20;185.17;;;;;;;;;;5055095;28;20589;-68
2023/10/26 02:24:55;;;;;;;420.57;158.17;;;;;;;;;;5056031;28;20215;-68
2023/10/26 02:27:21;;;;;;;481.63;183.20;;;;;;;;;;5048395;28;20238;-68
2023/10/26 02:29:47;;;;;;;474.80;180.80;;;;;;;;;;5048341;28;20194;-68
2023/10/26 02:32:13;;;;;;;479.30;183.37;;;;;;;;;;5072208;28;20219;-67
2023/10/26 02:34:39;;;;;;;407.70;157.27;;;;;;;;;;5057709;28;21039;-68
2023/10/26 02:37:05;;;;;;;447.63;170.30;;;;;;;;;;5051381;28;20349;-69
2023/10/26 02:39:31;;;;;;;461.77;179.83;;;;;;;;;;5066086;28;20244;-68
2023/10/26 02:41:57;;;;;;;479.43;184.60;;;;;;;;;;5052130;28;20183;-67
2023/10/26 02:44:23;;;;;;;430.43;164.23;;;;;;;;;;5054600;28;20332;-68
2023/10/26 02:46:49;;;;;;;444.57;167.57;;;;;;;;;;5052505;28;20569;-68
2023/10/26 02:49:15;;;;;;;431.27;163.70;;;;;;;;;;5051857;28;20222;-68
2023/10/26 02:51:41;;;;;;;451.00;172.40;;;;;;;;;;5051688;28;20294;-68
2023/10/26 02:54:07;;;;;;;459.63;179.00;;;;;;;;;;5056297;28;20309;-68
2023/10/26 02:56:33;;;;;;;438.63;167.80;;;;;;;;;;5071761;28;20219;-68
2023/10/26 02:58:59;;;;;;;420.97;159.37;;;;;;;;;;5052864;28;20214;-68
2023/10/26 03:01:25;;;;;;;481.93;192.10;;;;;;;;;;5049285;28;20742;-67
2023/10/26 03:03:51;;;;;;;436.00;167.93;;;;;;;;;;5069477;28;20211;-68
2023/10/26 03:06:17;;;;;;;476.90;186.20;;;;;;;;;;5050662;28;20203;-68
2023/10/26 03:08:43;;;;;;;437.93;166.83;;;;;;;;;;5052434;28;20241;-68
2023/10/26 03:11:09;;;;;;;485.87;186.40;;;;;;;;;;5052331;28;20206;-68
2023/10/26 03:13:35;;;;;;;433.37;163.37;;;;;;;;;;5054377;28;20641;-68
2023/10/26 03:16:00;;;;;;;433.17;163.50;;;;;;;;;;5048452;28;20235;-68
2023/10/26 03:18:26;;;;;;;474.10;181.20;;;;;;;;;;5047366;28;20593;-68
2023/10/26 03:20:52;;;;;;;447.80;169.77;;;;;;;;;;5046920;28;20211;-68
2023/10/26 03:23:18;;;;;;;487.93;191.27;;;;;;;;;;5056632;28;20283;-68
2023/10/26 03:25:44;;;;;;;457.03;173.37;;;;;;;;;;5068740;28;20617;-68
2023/10/26 03:28:10;;;;;;;501.73;195.20;;;;;;;;;;5049508;28;20206;-68
2023/10/26 03:30:36;;;;;;;446.30;172.83;;;;;;;;;;5048914;28;20718;-68
2023/10/26 03:33:02;;;;;;;456.03;172.17;;;;;;;;;;5055187;28;20210;-68
2023/10/26 03:35:28;;;;;;;455.47;181.07;;;;;;;;;;5054775;28;20202;-67
2023/10/26 03:37:54;;;;;;;442.07;168.63;;;;;;;;;;5055047;28;20888;-68
2023/10/26 03:40:20;;;;;;;457.47;183.57;;;;;;;;;;5048297;28;20352;-68
2023/10/26 03:42:46;;;;;;;449.57;169.60;;;;;;;;;;5050755;28;20207;-68
2023/10/26 03:45:12;;;;;;;504.53;204.80;;;;;;;;;;5046597;28;20184;-67
2023/10/26 03:47:39;;;;;;;406.80;157.10;;;;;;;;;;5053847;28;20199;-68
2023/10/26 03:50:05;;;;;;;480.17;185.90;;;;;;;;;;5051907;28;20218;-68
2023/10/26 03:52:31;;;;;;;422.50;162.47;;;;;;;;;;5052537;28;20724;-68
2023/10/26 03:54:57;;;;;;;419.60;159.03;;;;;;;;;;5055630;28;20230;-68
2023/10/26 03:57:23;;;;;;;517.57;212.47;;;;;;;;;;5044810;28;20417;-68
2023/10/26 03:59:49;;;;;;;454.27;174.10;;;;;;;;;;5051536;28;20722;-68
2023/10/26 04:02:15;;;;;;;480.03;187.63;;;;;;;;;;5049772;28;20277;-68
2023/10/26 04:04:42;;;;;;;447.27;169.67;;;;;;;;;;5058439;28;20215;-68
2023/10/26 04:07:08;;;;;;;480.43;183.30;;;;;;;;;;5054204;28;20949;-68
2023/10/26 04:09:34;;;;;;;480.53;186.07;;;;;;;;;;5050771;28;20207;-68
2023/10/26 04:12:00;;;;;;;441.10;166.27;;;;;;;;;;5054452;28;20187;-68
2023/10/26 04:14:26;;;;;;;475.13;180.60;;;;;;;;;;5051954;28;20334;-67
2023/10/26 04:16:52;;;;;;;432.27;163.97;;;;;;;;;;5052930;28;20226;-68
2023/10/26 04:19:18;;;;;;;486.27;190.83;;;;;;;;;;5050550;28;20253;-68
2023/10/26 04:21:44;;;;;;;491.60;190.50;;;;;;;;;;5054486;28;20369;-68
2023/10/26 04:24:10;;;;;;;478.30;182.37;;;;;;;;;;5052896;28;20576;-68
2023/10/26 04:26:36;;;;;;;443.87;166.20;;;;;;;;;;5053061;28;20203;-68
2023/10/26 04:29:05;;;;;;;460.47;177.20;;;;;;;;;;5052633;28;20329;-68
2023/10/26 04:31:31;;;;;;;440.70;172.30;;;;;;;;;;5050339;28;20223;-68
2023/10/26 04:33:58;;;;;;;425.70;161.47;;;;;;;;;;5052435;28;20210;-68
2023/10/26 04:36:24;;;;;;;450.30;172.77;;;;;;;;;;5045364;28;20227;-68
2023/10/26 04:38:50;;;;;;;470.67;176.77;;;;;;;;;;5049096;28;20183;-68
2023/10/26 04:41:16;;;;;;;467.73;181.07;;;;;;;;;;5051145;28;20604;-68
2023/10/26 04:43:42;;;;;;;463.73;178.73;;;;;;;;;;5067103;28;20260;-68
2023/10/26 04:46:08;;;;;;;460.43;175.37;;;;;;;;;;5050745;28;20726;-68
2023/10/26 04:48:34;;;;;;;440.77;171.90;;;;;;;;;;5051978;28;20220;-68
2023/10/26 04:51:00;;;;;;;436.17;169.43;;;;;;;;;;5052895;28;20187;-67
2023/10/26 04:53:26;;;;;;;451.97;175.50;;;;;;;;;;5045339;28;20214;-68
2023/10/26 04:55:52;;;;;;;471.10;182.07;;;;;;;;;;5057126;28;20234;-68
2023/10/26 04:58:18;;;;;;;480.97;187.63;;;;;;;;;;5052324;28;21281;-68
2023/10/26 05:00:44;;;;;;;468.30;185.03;;;;;;;;;;5048710;28;20330;-68
2023/10/26 05:03:10;;;;;;;470.77;181.57;;;;;;;;;;5052085;28;20814;-68
2023/10/26 05:05:36;;;;;;;452.63;178.83;;;;;;;;;;5048325;28;20183;-68
2023/10/26 05:08:03;;;;;;;463.07;181.10;;;;;;;;;;5051830;28;20677;-68
2023/10/26 05:10:29;;;;;;;458.13;173.77;;;;;;;;;;5056505;28;20215;-68
2023/10/26 05:12:55;;;;;;;431.67;161.40;;;;;;;;;;5054355;28;20223;-68
2023/10/26 05:15:21;;;;;;;517.03;205.90;;;;;;;;;;5050768;28;20644;-68
2023/10/26 05:17:47;;;;;;;491.87;191.30;;;;;;;;;;5051968;28;20212;-68
2023/10/26 05:20:13;;;;;;;471.87;182.40;;;;;;;;;;5050864;28;20312;-68
2023/10/26 05:22:39;;;;;;;441.90;168.53;;;;;;;;;;5051089;28;20221;-68
2023/10/26 05:25:05;;;;;;;454.60;170.10;;;;;;;;;;5056354;28;20257;-68
2023/10/26 05:27:32;;;;;;;508.23;204.37;;;;;;;;;;5054452;28;20223;-68
2023/10/26 05:29:58;;;;;;;447.67;170.77;;;;;;;;;;5049508;28;20186;-68
2023/10/26 05:32:24;;;;;;;472.23;184.23;;;;;;;;;;5045844;28;20310;-69
2023/10/26 05:34:50;;;;;;;439.00;165.63;;;;;;;;;;5051350;28;20443;-68
2023/10/26 05:37:16;;;;;;;751.20;349.17;;;;;;;;;;5046651;28;20221;-83
2023/10/26 05:39:42;;;;;;;474.47;181.47;;;;;;;;;;5056527;28;20274;-75
2023/10/26 05:42:08;;;;;;;499.57;202.20;;;;;;;;;;5069073;28;20178;-77
2023/10/26 05:44:34;;;;;;;459.13;180.93;;;;;;;;;;5073832;28;20958;-77
2023/10/26 05:47:00;;;;;;;420.27;158.33;;;;;;;;;;5058423;28;20300;-75
2023/10/26 05:49:26;;;;;;;452.57;177.77;;;;;;;;;;5049495;28;20219;-71
2023/10/26 05:51:52;;;;;;;441.30;171.57;;;;;;;;;;5052505;28;20253;-72
2023/10/26 05:54:18;;;;;;;441.23;169.83;;;;;;;;;;5051765;28;20723;-74
2023/10/26 05:56:44;;;;;;;416.50;159.17;;;;;;;;;;5054202;28;20218;-73
2023/10/26 05:59:10;;;;;;;474.07;190.73;;;;;;;;;;5051564;28;20826;-69
2023/10/26 06:01:36;;;;;;;414.67;164.37;;;;;;;;;;5060921;28;20632;-75
2023/10/26 06:04:02;;;;;;;423.57;165.47;;;;;;;;;;5070238;28;20210;-74
2023/10/26 06:06:29;;;;;;;488.83;196.67;;;;;;;;;;5072898;28;20211;-74
2023/10/26 06:08:55;;;;;;;423.03;163.20;;;;;;;;;;5050493;28;20206;-74
2023/10/26 06:11:21;;;;;;;457.90;178.50;;;;;;;;;;5057158;28;20251;-72
2023/10/26 06:13:47;;;;;;;443.77;174.37;;;;;;;;;;5058765;28;20298;-72
2023/10/26 06:16:15;;;;;;;469.23;181.80;;;;;;;;;;5054907;28;20708;-74
2023/10/26 06:18:41;;;;;;;480.67;193.43;;;;;;;;;;5051919;28;20253;-76
2023/10/26 06:21:07;;;;;;;490.67;203.67;;;;;;;;;;5057679;28;20187;-76
2023/10/26 06:23:33;;;;;;;496.57;202.60;;;;;;;;;;5052525;28;20187;-75
2023/10/26 06:26:00;;;;;;;431.63;166.40;;;;;;;;;;5068663;28;20233;-75
2023/10/26 06:28:26;;;;;;;447.63;173.17;;;;;;;;;;5068077;28;20214;-75
2023/10/26 06:30:52;;;;;;;446.30;170.13;;;;;;;;;;5070365;28;20264;-73
2023/10/26 06:33:18;;;;;;;481.63;190.17;;;;;;;;;;5065919;28;20182;-75
2023/10/26 06:35:44;;;;;;;444.43;170.03;;;;;;;;;;5056372;28;20219;-77
2023/10/26 06:38:10;;;;;;;491.17;194.37;;;;;;;;;;5048338;28;20239;-76
2023/10/26 06:40:36;;;;;;;441.93;167.23;;;;;;;;;;5045028;28;20211;-74
2023/10/26 06:43:02;;;;;;;469.90;179.53;;;;;;;;;;5045550;28;20699;-75
2023/10/26 06:45:28;;;;;;;519.10;205.33;;;;;;;;;;5046045;28;20211;-74
2023/10/26 06:47:54;;;;;;;434.23;166.47;;;;;;;;;;5056984;28;20214;-72
2023/10/26 06:50:21;;;;;;;466.13;180.23;;;;;;;;;;5052538;28;20233;-74
2023/10/26 06:52:47;;;;;;;438.53;165.70;;;;;;;;;;5054563;28;20655;-76
2023/10/26 06:55:16;;;;;;;480.40;190.87;;;;;;;;;;5056520;28;20232;-77
2023/10/26 06:57:42;;;;;;;515.23;205.80;;;;;;;;;;5047376;28;20312;-76
2023/10/26 07:00:09;;;;;;;471.10;187.20;;;;;;;;;;5051385;28;20494;-75
2023/10/26 07:02:36;;;;;;;496.10;193.77;;;;;;;;;;5050281;28;20668;-75
2023/10/26 07:05:02;;;;;;;453.13;181.23;;;;;;;;;;5069826;28;20225;-68
2023/10/26 07:07:28;;;;;;;467.50;184.27;;;;;;;;;;5047130;28;20234;-67
2023/10/26 07:09:54;;;;;;;476.77;201.30;;;;;;;;;;5051046;28;20242;-68
2023/10/26 07:12:20;;;;;;;478.80;190.37;;;;;;;;;;5046055;28;20213;-68
2023/10/26 07:14:46;;;;;;;478.03;190.33;;;;;;;;;;5050534;28;20183;-66
2023/10/26 07:17:12;;;;;;;434.33;167.73;;;;;;;;;;5049074;28;20220;-66
2023/10/26 07:19:38;;;;;;;445.53;173.90;;;;;;;;;;5048825;28;20580;-67
2023/10/26 07:22:04;;;;;;;440.97;174.07;;;;;;;;;;5046530;28;20218;-67
2023/10/26 07:24:33;;;;;;;515.93;207.63;;;;;;;;;;5045218;28;20217;-74
2023/10/26 07:26:59;;;;;;;500.97;210.37;;;;;;;;;;5051457;28;20198;-76
2023/10/26 07:29:25;;;;;;;444.60;169.83;;;;;;;;;;5048217;28;20805;-76
2023/10/26 07:31:51;;;;;;;444.27;169.50;;;;;;;;;;5051028;28;20318;-75
2023/10/26 07:34:17;;;;;;;480.23;190.97;;;;;;;;;;5051366;28;20218;-76
2023/10/26 07:36:43;;;;;;;500.37;198.30;;;;;;;;;;5049953;28;20526;-76
2023/10/26 07:39:09;;;;;;;480.60;191.73;;;;;;;;;;5050880;28;20189;-75
2023/10/26 07:41:35;;;;;;;457.67;176.13;;;;;;;;;;5079190;28;20190;-76
2023/10/26 07:44:01;;;;;;;488.37;192.93;;;;;;;;;;5069976;28;20244;-77
2023/10/26 07:46:27;;;;;;;469.50;184.77;;;;;;;;;;5072975;28;20214;-76
2023/10/26 07:48:53;;;;;;;434.50;167.93;;;;;;;;;;5080948;28;20719;-76
2023/10/26 07:51:18;;;;;;;449.67;174.67;;;;;;;;;;5054612;28;20549;-76
2023/10/26 07:53:44;;;;;;;468.50;185.93;;;;;;;;;;5068316;28;20239;-77
2023/10/26 07:56:10;;;;;;;451.80;171.30;;;;;;;;;;5068026;28;20222;-77
2023/10/26 07:58:36;;;;;;;461.43;181.80;;;;;;;;;;5071565;28;20213;-76
2023/10/26 08:01:09;;;;;;;475.93;188.90;;;;;;;;;;5071899;28;20206;-77
2023/10/26 08:03:35;;;;;;;467.20;178.63;;;;;;;;;;5076742;28;20971;-78
2023/10/26 08:06:02;;;;;;;451.30;169.03;;;;;;;;;;5073767;28;20257;-77
2023/10/26 08:08:30;;;;;;;443.73;168.13;;;;;;;;;;5057664;28;20229;-76
2023/10/26 08:10:56;;;;;;;490.83;192.53;;;;;;;;;;5063755;28;20671;-77
2023/10/26 08:13:22;;;;;;;460.83;176.33;;;;;;;;;;5071662;28;20214;-77
2023/10/26 08:15:48;;;;;;;459.50;179.63;;;;;;;;;;5073727;28;20214;-77
2023/10/26 08:18:14;;;;;;;454.73;174.10;;;;;;;;;;5071577;28;20198;-73
2023/10/26 08:20:41;;;;;;;482.17;191.10;;;;;;;;;;5074269;28;20211;-74
2023/10/26 08:23:07;;;;;;;428.00;164.63;;;;;;;;;;5064781;28;20262;-74
2023/10/26 08:25:36;;;;;;;465.07;177.40;;;;;;;;;;5071096;28;20432;-76
2023/10/26 08:28:02;;;;;;;443.07;170.33;;;;;;;;;;5068205;28;20218;-77
2023/10/26 08:30:28;;;;;;;440.17;167.23;;;;;;;;;;5058396;28;20627;-77
2023/10/26 08:32:56;;;;;;;481.17;185.93;;;;;;;;;;5057330;28;20190;-78
2023/10/26 08:35:22;;;;;;;468.83;184.10;;;;;;;;;;5045666;28;20219;-76
2023/10/26 08:37:48;;;;;;;497.23;200.13;;;;;;;;;;5050402;28;20207;-77
2023/10/26 08:40:14;;;;;;;439.47;165.53;;;;;;;;;;5064785;28;20224;-75
2023/10/26 08:42:40;;;;;;;463.67;178.10;;;;;;;;;;5071976;28;20206;-77
2023/10/26 08:45:12;;;;;;;464.37;177.40;;;;;;;;;;5068183;28;20194;-76
2023/10/26 08:47:39;;;;;;;463.73;181.83;;;;;;;;;;5055002;28;20222;-76
2023/10/26 08:50:06;;;;;;;483.50;189.13;;;;;;;;;;5053744;28;20214;-79
2023/10/26 08:52:32;;;;;;;520.50;211.33;;;;;;;;;;5043134;28;20275;-77
2023/10/26 08:54:58;;;;;;;443.60;167.03;;;;;;;;;;5063113;28;20226;-77
2023/10/26 08:57:24;;;;;;;479.60;184.30;;;;;;;;;;5068031;28;20214;-78
2023/10/26 08:59:50;;;;;;;442.97;169.43;;;;;;;;;;5082953;28;20174;-78
2023/10/26 09:02:16;;;;;;;459.83;178.17;;;;;;;;;;5060190;28;20264;-77
2023/10/26 09:05:02;;;;;;;462.27;180.10;;;;;;;;;;5053292;28;20218;-79
2023/10/26 09:07:28;;;;;;;427.13;163.93;;;;;;;;;;5056086;28;20242;-79
2023/10/26 09:09:54;;;;;;;489.57;193.70;;;;;;;;;;5046482;28;20246;-78
2023/10/26 09:12:20;;;;;;;495.30;193.07;;;;;;;;;;5054526;28;20864;-79
2023/10/26 09:15:02;;;;;;;463.30;182.40;;;;;;;;;;5059653;28;20190;-77
2023/10/26 09:17:29;;;;;;;447.17;170.17;;;;;;;;;;5069687;28;20929;-80
2023/10/26 09:19:55;;;;;;;454.73;174.63;;;;;;;;;;5069400;28;20317;-78
2023/10/26 09:22:37;;;;;;;476.97;185.17;;;;;;;;;;5061007;28;20241;-77
2023/10/26 09:25:10;;;;;;;434.40;166.80;;;;;;;;;;5055133;28;20223;-78
2023/10/26 09:27:36;;;;;;;488.63;191.00;;;;;;;;;;5053615;28;20799;-77
2023/10/26 09:30:03;;;;;;;441.70;171.33;;;;;;;;;;5055506;28;20193;-77
2023/10/26 09:32:35;;;;;;;443.77;170.53;;;;;;;;;;5056687;28;20317;-77
2023/10/26 09:35:03;;;;;;;466.87;179.23;;;;;;;;;;5051831;28;20211;-77
2023/10/26 09:37:29;;;;;;;461.00;179.03;;;;;;;;;;5047855;28;20245;-80
2023/10/26 09:39:55;;;;;;;466.00;177.27;;;;;;;;;;5053352;28;20334;-77
2023/10/26 09:42:22;;;;;;;471.20;185.40;;;;;;;;;;5055285;28;20229;-78
2023/10/26 09:44:48;;;;;;;458.33;176.73;;;;;;;;;;5063672;28;20182;-78
2023/10/26 09:47:14;;;;;;;499.97;196.03;;;;;;;;;;5057390;28;20530;-78
2023/10/26 09:49:40;;;;;;;459.70;180.20;;;;;;;;;;5053014;28;20755;-77
2023/10/26 09:52:06;;;;;;;555.93;234.07;;;;;;;;;;5044790;28;20222;-70
2023/10/26 09:54:33;;;;;;;460.47;177.47;;;;;;;;;;5053921;28;20276;-72
2023/10/26 09:57:01;;;;;;;465.07;180.37;;;;;;;;;;5054537;28;20360;-71
2023/10/26 09:59:28;;;;;;;470.00;184.63;;;;;;;;;;5070619;28;20695;-73
2023/10/26 10:01:54;;;;;;;558.37;240.33;;;;;;;;;;5066856;28;20256;-71
2023/10/26 10:04:34;;;;;;;467.60;187.57;;;;;;;;;;5068882;28;20236;-70
2023/10/26 10:07:02;;;;;;;470.70;190.70;;;;;;;;;;5070663;28;20242;-70
2023/10/26 10:09:29;;;;;;;453.33;175.50;;;;;;;;;;5062751;28;20203;-70
2023/10/26 10:12:21;;;;;;;464.57;182.20;;;;;;;;;;5072829;28;20225;-71
2023/10/26 10:14:54;;;;;;;500.53;201.80;;;;;;;;;;5024275;28;20210;-70
2023/10/26 10:17:40;;;;;;;475.27;187.87;;;;;;;;;;5060540;28;20724;-73
2023/10/26 10:20:16;;;;;;;476.87;195.17;;;;;;;;;;5070255;28;20259;-72
2023/10/26 10:22:45;;;;;;;537.40;222.23;;;;;;;;;;5067803;28;20209;-67
2023/10/26 10:25:12;;;;;;;516.03;207.30;;;;;;;;;;5058598;28;20222;-66
2023/10/26 10:27:39;;;;;;;491.60;191.20;;;;;;;;;;5055993;28;20237;-66
2023/10/26 10:30:07;;;;;;;496.10;199.97;;;;;;;;;;5051734;28;23602;-70
2023/10/26 10:32:46;;;;;;;494.60;199.33;;;;;;;;;;5058095;28;20223;-71
2023/10/26 10:35:14;;;;;;;487.53;192.23;;;;;;;;;;5066412;28;20313;-71
2023/10/26 10:38:00;;;;;;;564.07;237.33;;;;;;;;;;5061650;28;20245;-70
2023/10/26 10:40:26;;;;;;;470.53;182.63;;;;;;;;;;5069070;28;20282;-70
2023/10/26 10:42:52;;;;;;;457.60;174.43;;;;;;;;;;5059837;28;20214;-69
2023/10/26 10:45:19;;;;;;;523.83;215.13;;;;;;;;;;5051265;28;20971;-70
2023/10/26 10:47:49;;;;;;;437.60;166.53;;;;;;;;;;5056030;28;20599;-70
2023/10/26 10:50:18;;;;;;;460.03;180.77;;;;;;;;;;5068394;28;20721;-71
2023/10/26 10:52:48;;;;;;;540.20;225.63;;;;;;;;;;5065632;28;20206;-71
2023/10/26 10:55:24;;;;;;;465.97;184.63;;;;;;;;;;5064291;28;20218;-71
2023/10/26 10:57:57;;;;;;;456.70;176.47;;;;;;;;;;5070720;28;20289;-71
2023/10/26 11:00:24;;;;;;;466.47;183.73;;;;;;;;;;5066095;28;20223;-71
2023/10/26 11:02:52;;;;;;;517.17;211.47;;;;;;;;;;5073065;28;20186;-72
2023/10/26 11:05:18;;;;;;;475.13;192.13;;;;;;;;;;5070035;28;20386;-71
2023/10/26 11:07:44;;;;;;;541.83;228.93;;;;;;;;;;5047440;28;20215;-71
2023/10/26 11:10:10;;;;;;;468.50;182.57;;;;;;;;;;5048997;28;20214;-71
2023/10/26 11:12:37;;;;;;;545.53;223.70;;;;;;;;;;5055203;28;20300;-72
2023/10/26 11:15:04;;;;;;;449.87;169.27;;;;;;;;;;5070739;28;20178;-71
2023/10/26 11:17:30;;;;;;;483.60;189.53;;;;;;;;;;5068483;28;20214;-71
2023/10/26 11:19:57;;;;;;;448.30;172.53;;;;;;;;;;5069544;28;20338;-71
2023/10/26 11:22:23;;;;;;;457.53;174.83;;;;;;;;;;5065401;28;20248;-71
2023/10/26 11:24:49;;;;;;;448.27;172.80;;;;;;;;;;5064295;28;20274;-71
2023/10/26 11:27:17;;;;;;;551.30;224.87;;;;;;;;;;5068603;28;20679;-71
2023/10/26 11:29:44;;;;;;;489.90;196.33;;;;;;;;;;5067555;28;20229;-70
2023/10/26 11:32:20;;;;;;;478.97;186.23;;;;;;;;;;5069764;28;20220;-70
2023/10/26 11:35:09;;;;;;;499.57;199.93;;;;;;;;;;5070845;28;20206;-71
2023/10/26 11:37:41;;;;;;;484.10;193.37;;;;;;;;;;5060575;28;20218;-70
2023/10/26 11:40:07;;;;;;;530.87;215.97;;;;;;;;;;5069480;28;20224;-70
2023/10/26 11:42:49;;;;;;;573.97;240.60;;;;;;;;;;5069320;28;20241;-71
2023/10/26 11:45:16;;;;;;;478.30;189.53;;;;;;;;;;5072878;28;20186;-71
2023/10/26 11:47:53;;;;;;;506.60;205.20;;;;;;;;;;5064759;28;20194;-71
2023/10/26 11:50:37;;;;;;;515.37;211.30;;;;;;;;;;5063585;28;20603;-71
2023/10/26 11:53:04;;;;;;;463.23;181.57;;;;;;;;;;5066211;28;20232;-71
2023/10/26 11:55:31;;;;;;;479.87;186.63;;;;;;;;;;5067925;28;20226;-71
2023/10/26 11:57:58;;;;;;;439.17;170.23;;;;;;;;;;5070816;28;20384;-74
2023/10/26 12:00:24;;;;;;;447.60;171.63;;;;;;;;;;5069291;28;20666;-70
2023/10/26 12:02:50;;;;;;;508.53;204.70;;;;;;;;;;5067616;28;20215;-70
2023/10/26 12:05:17;;;;;;;487.90;191.57;;;;;;;;;;5066484;28;20259;-69
2023/10/26 12:07:44;;;;;;;540.23;225.20;;;;;;;;;;5069167;28;20225;-72
2023/10/26 12:10:10;;;;;;;448.87;174.27;;;;;;;;;;5062423;28;20260;-71
2023/10/26 12:12:36;;;;;;;547.80;231.27;;;;;;;;;;5055584;28;20580;-70
2023/10/26 12:15:02;;;;;;;436.70;164.93;;;;;;;;;;5069906;28;20182;-71
2023/10/26 12:17:28;;;;;;;441.27;165.00;;;;;;;;;;5069822;28;20219;-72
2023/10/26 12:19:54;;;;;;;449.00;176.23;;;;;;;;;;5064125;28;20213;-71
2023/10/26 12:22:20;;;;;;;519.50;210.50;;;;;;;;;;5060014;28;20614;-71
2023/10/26 12:24:46;;;;;;;455.03;181.17;;;;;;;;;;5062103;28;20206;-71
2023/10/26 12:27:16;;;;;;;461.27;183.90;;;;;;;;;;5068956;28;20221;-71
2023/10/26 12:29:42;;;;;;;444.53;169.20;;;;;;;;;;5066140;28;20572;-71
2023/10/26 12:32:07;;;;;;;457.67;177.63;;;;;;;;;;5071346;28;20305;-71
2023/10/26 12:34:33;;;;;;;485.97;188.87;;;;;;;;;;5071657;28;20349;-71
2023/10/26 12:36:59;;;;;;;459.50;180.70;;;;;;;;;;5069801;28;20217;-71
2023/10/26 12:39:25;;;;;;;464.17;180.70;;;;;;;;;;5067349;28;20272;-71
2023/10/26 12:41:51;;;;;;;511.40;204.10;;;;;;;;;;5070979;28;20216;-71
2023/10/26 12:44:20;;;;;;;450.17;172.23;;;;;;;;;;5073076;28;20277;-73
2023/10/26 12:46:46;;;;;;;427.80;164.07;;;;;;;;;;5077237;28;20217;-72
2023/10/26 12:49:12;;;;;;;479.13;192.07;;;;;;;;;;5071112;28;20738;-73
2023/10/26 12:51:38;;;;;;;429.33;161.07;;;;;;;;;;5075050;28;20256;-72
2023/10/26 12:54:04;;;;;;;456.50;177.80;;;;;;;;;;5070892;28;20213;-72
2023/10/26 12:56:30;;;;;;;457.10;178.10;;;;;;;;;;5067363;28;20299;-72
2023/10/26 12:58:56;;;;;;;505.87;206.17;;;;;;;;;;5067131;28;20214;-71
2023/10/26 13:01:21;;;;;;;431.90;168.00;;;;;;;;;;5070816;28;20774;-71
2023/10/26 13:03:48;;;;;;;456.83;174.37;;;;;;;;;;5076056;28;20345;-72
2023/10/26 13:06:13;;;;;;;456.10;175.57;;;;;;;;;;5074678;28;20236;-72
2023/10/26 13:08:39;;;;;;;489.37;187.27;;;;;;;;;;5059448;28;20664;-78
2023/10/26 13:11:05;;;;;;;509.97;196.97;;;;;;;;;;5069087;28;20230;-77
2023/10/26 13:13:31;;;;;;;449.53;173.80;;;;;;;;;;5072638;28;20206;-77
2023/10/26 13:15:57;;;;;;;484.37;188.93;;;;;;;;;;5070983;28;20222;-77
2023/10/26 13:18:23;;;;;;;495.93;190.67;;;;;;;;;;5072488;28;20329;-77
2023/10/26 13:20:49;;;;;;;505.73;205.43;;;;;;;;;;5072357;28;20187;-77
2023/10/26 13:23:15;;;;;;;479.93;193.67;;;;;;;;;;5067016;28;20206;-78
2023/10/26 13:25:41;;;;;;;439.03;170.13;;;;;;;;;;5074015;28;20210;-77
2023/10/26 13:28:07;;;;;;;497.80;197.47;;;;;;;;;;5064566;28;20651;-79
2023/10/26 13:30:33;;;;;;;472.10;182.87;;;;;;;;;;5069785;28;20218;-79
2023/10/26 13:32:58;;;;;;;470.43;183.53;;;;;;;;;;5071552;28;20179;-77
2023/10/26 13:35:29;;;;;;;442.33;175.43;;;;;;;;;;5072927;28;20360;-77
2023/10/26 13:37:55;;;;;;;504.47;203.10;;;;;;;;;;5067957;28;20615;-77
2023/10/26 13:40:21;;;;;;;456.33;176.20;;;;;;;;;;5069462;28;20762;-77
2023/10/26 13:42:47;;;;;;;484.10;188.27;;;;;;;;;;5071245;28;20301;-76
2023/10/26 13:45:13;;;;;;;465.07;180.90;;;;;;;;;;5072290;28;20269;-77
2023/10/26 13:47:39;;;;;;;482.33;188.73;;;;;;;;;;5070610;28;20271;-77
2023/10/26 13:50:05;;;;;;;458.03;180.23;;;;;;;;;;5072032;28;20233;-77